sensor_id;sensor_type;location;lat;lon;timestamp;pressure;altitude;pressure_sealevel;temperature;humidity
39075;BME280;24826;52.070;20.970;2023-03-31T00:00:10;61388.72;;;-147.04;100.00
39075;BME280;24826;52.070;20.970;2023-03-31T00:03:12;61380.75;;;-147.04;100.00
39075;BME280;24826;52.070;20.970;2023-03-31T00:05:58;61414.56;;;-147.04;100.00
39075;BME280;24826;52.070;20.970;2023-03-31T00:08:43;61428.47;;;-147.04;100.00
39075;BME280;24826;52.070;20.970;2023-03-31T00:11:28;61424.50;;;-147.04;100.00
39075;BME280;24826;52.070;20.970;2023-03-31T00:14:12;61412.56;;;-147.04;100.00
39075;BME280;24826;52.070;20.970;2023-03-31T00:16:58;61426.50;;;-147.04;100.00
39075;BME280;24826;52.070;20.970;2023-03-31T00:19:45;61422.53;;;-147.04;100.00
39075;BME280;24826;52.070;20.970;2023-03-31T00:22:33;61414.56;;;-147.04;100.00
39075;BME280;24826;52.070;20.970;2023-03-31T00:25:17;61398.66;;;-147.04;100.00
39075;BME280;24826;52.070;20.970;2023-03-31T00:28:02;61394.69;;;-147.04;100.00
39075;BME280;24826;52.070;20.970;2023-03-31T00:30:46;61400.66;;;-147.04;100.00
39075;BME280;24826;52.070;20.970;2023-03-31T00:33:31;61368.84;;;-147.04;100.00
39075;BME280;24826;52.070;20.970;2023-03-31T00:36:16;61402.63;;;-147.04;100.00
39075;BME280;24826;52.070;20.970;2023-03-31T00:39:16;61404.63;;;-147.04;100.00
39075;BME280;24826;52.070;20.970;2023-03-31T00:42:02;61358.88;;;-147.04;100.00
39075;BME280;24826;52.070;20.970;2023-03-31T00:48:07;61390.72;;;-147.04;100.00
39075;BME280;24826;52.070;20.970;2023-03-31T00:50:58;61341.00;;;-147.04;100.00
39075;BME280;24826;52.070;20.970;2023-03-31T00:53:51;61380.75;;;-147.04;100.00
39075;BME280;24826;52.070;20.970;2023-03-31T00:56:44;61382.75;;;-147.04;100.00
39075;BME280;24826;52.070;20.970;2023-03-31T00:59:33;61412.56;;;-147.04;100.00
39075;BME280;24826;52.070;20.970;2023-03-31T01:02:20;61392.69;;;-147.04;100.00
39075;BME280;24826;52.070;20.970;2023-03-31T01:05:06;61623.34;;;-147.04;100.00
39075;BME280;24826;52.070;20.970;2023-03-31T01:07:52;61392.69;;;-147.04;100.00
39075;BME280;24826;52.070;20.970;2023-03-31T01:10:40;61396.66;;;-147.04;100.00
39075;BME280;24826;52.070;20.970;2023-03-31T01:13:27;61400.66;;;-147.04;100.00
39075;BME280;24826;52.070;20.970;2023-03-31T01:16:12;61412.56;;;-147.04;100.00
39075;BME280;24826;52.070;20.970;2023-03-31T01:18:57;61372.81;;;-147.04;100.00
39075;BME280;24826;52.070;20.970;2023-03-31T01:22:03;61390.72;;;-147.04;100.00
39075;BME280;24826;52.070;20.970;2023-03-31T01:28:40;61384.75;;;-147.04;100.00
39075;BME280;24826;52.070;20.970;2023-03-31T01:40:52;61404.63;;;-147.04;100.00
39075;BME280;24826;52.070;20.970;2023-03-31T01:46:55;61412.56;;;-147.04;100.00
39075;BME280;24826;52.070;20.970;2023-03-31T01:49:51;61428.47;;;-147.04;100.00
39075;BME280;24826;52.070;20.970;2023-03-31T01:52:50;61376.78;;;-147.04;100.00
39075;BME280;24826;52.070;20.970;2023-03-31T01:55:40;61496.09;;;-147.04;100.00
39075;BME280;24826;52.070;20.970;2023-03-31T01:58:49;61398.66;;;-147.04;100.00
39075;BME280;24826;52.070;20.970;2023-03-31T02:01:50;61408.59;;;-147.04;100.00
39075;BME280;24826;52.070;20.970;2023-03-31T02:04:57;61406.63;;;-147.04;100.00
39075;BME280;24826;52.070;20.970;2023-03-31T02:08:13;61390.72;;;-147.04;100.00
39075;BME280;24826;52.070;20.970;2023-03-31T02:10:58;61388.72;;;-147.04;100.00
39075;BME280;24826;52.070;20.970;2023-03-31T02:13:45;61358.88;;;-147.04;100.00
39075;BME280;24826;52.070;20.970;2023-03-31T02:16:31;61468.25;;;-147.04;100.00
39075;BME280;24826;52.070;20.970;2023-03-31T02:19:19;61416.56;;;-147.04;100.00
39075;BME280;24826;52.070;20.970;2023-03-31T02:22:06;61430.47;;;-147.04;100.00
39075;BME280;24826;52.070;20.970;2023-03-31T02:24:53;61400.66;;;-147.04;100.00
39075;BME280;24826;52.070;20.970;2023-03-31T02:27:40;61388.72;;;-147.04;100.00
39075;BME280;24826;52.070;20.970;2023-03-31T02:30:35;61496.09;;;-147.04;100.00
39075;BME280;24826;52.070;20.970;2023-03-31T02:33:22;61394.69;;;-147.04;100.00
39075;BME280;24826;52.070;20.970;2023-03-31T02:36:06;61392.69;;;-147.04;100.00
39075;BME280;24826;52.070;20.970;2023-03-31T02:39:02;61364.84;;;-147.04;100.00
39075;BME280;24826;52.070;20.970;2023-03-31T02:41:48;61388.72;;;-147.04;100.00
39075;BME280;24826;52.070;20.970;2023-03-31T02:44:34;61414.56;;;-147.04;100.00
39075;BME280;24826;52.070;20.970;2023-03-31T02:47:20;61424.50;;;-147.04;100.00
39075;BME280;24826;52.070;20.970;2023-03-31T02:50:05;61374.78;;;-147.04;100.00
39075;BME280;24826;52.070;20.970;2023-03-31T02:55:51;61382.75;;;-147.04;100.00
39075;BME280;24826;52.070;20.970;2023-03-31T03:11:04;61376.78;;;-147.04;100.00
39075;BME280;24826;52.070;20.970;2023-03-31T03:17:03;61356.91;;;-147.04;100.00
39075;BME280;24826;52.070;20.970;2023-03-31T03:19:53;61386.72;;;-147.04;100.00
39075;BME280;24826;52.070;20.970;2023-03-31T03:22:39;61392.69;;;-147.04;100.00
39075;BME280;24826;52.070;20.970;2023-03-31T03:25:24;61396.66;;;-147.04;100.00
39075;BME280;24826;52.070;20.970;2023-03-31T03:28:09;61392.69;;;-147.04;100.00
39075;BME280;24826;52.070;20.970;2023-03-31T03:30:53;61380.75;;;-147.04;100.00
39075;BME280;24826;52.070;20.970;2023-03-31T03:33:38;61504.03;;;-147.04;100.00
39075;BME280;24826;52.070;20.970;2023-03-31T03:36:22;61396.66;;;-147.04;100.00
39075;BME280;24826;52.070;20.970;2023-03-31T03:39:07;61412.56;;;-147.04;100.00
39075;BME280;24826;52.070;20.970;2023-03-31T03:41:51;61388.72;;;-147.04;100.00
39075;BME280;24826;52.070;20.970;2023-03-31T03:44:35;61364.84;;;-147.04;100.00
39075;BME280;24826;52.070;20.970;2023-03-31T03:47:20;61392.69;;;-147.04;100.00
39075;BME280;24826;52.070;20.970;2023-03-31T03:50:05;61364.84;;;-147.04;100.00
39075;BME280;24826;52.070;20.970;2023-03-31T03:52:49;61543.81;;;-147.04;100.00
39075;BME280;24826;52.070;20.970;2023-03-31T03:55:34;61392.69;;;-147.04;100.00
39075;BME280;24826;52.070;20.970;2023-03-31T03:58:19;61376.78;;;-147.04;100.00
39075;BME280;24826;52.070;20.970;2023-03-31T04:01:04;61398.66;;;-147.04;100.00
39075;BME280;24826;52.070;20.970;2023-03-31T04:03:48;61360.88;;;-147.04;100.00
39075;BME280;24826;52.070;20.970;2023-03-31T04:06:33;61265.44;;;-147.04;100.00
39075;BME280;24826;52.070;20.970;2023-03-31T04:09:17;61374.78;;;-147.04;100.00
39075;BME280;24826;52.070;20.970;2023-03-31T04:12:02;61384.75;;;-147.04;100.00
39075;BME280;24826;52.070;20.970;2023-03-31T04:14:47;61396.66;;;-147.04;100.00
39075;BME280;24826;52.070;20.970;2023-03-31T04:17:32;61329.06;;;-147.04;100.00
39075;BME280;24826;52.070;20.970;2023-03-31T04:20:17;61366.84;;;-147.04;100.00
39075;BME280;24826;52.070;20.970;2023-03-31T04:23:03;61382.75;;;-147.04;100.00
39075;BME280;24826;52.070;20.970;2023-03-31T04:25:51;61386.72;;;-147.04;100.00
39075;BME280;24826;52.070;20.970;2023-03-31T04:28:36;61364.84;;;-147.04;100.00
39075;BME280;24826;52.070;20.970;2023-03-31T04:31:21;61414.56;;;-147.04;100.00
39075;BME280;24826;52.070;20.970;2023-03-31T04:34:10;61392.69;;;-147.04;100.00
39075;BME280;24826;52.070;20.970;2023-03-31T04:36:55;61396.66;;;-147.04;100.00
39075;BME280;24826;52.070;20.970;2023-03-31T04:39:40;61400.66;;;-147.04;100.00
39075;BME280;24826;52.070;20.970;2023-03-31T04:42:24;61358.88;;;-147.04;100.00
39075;BME280;24826;52.070;20.970;2023-03-31T04:45:10;61426.50;;;-147.04;100.00
39075;BME280;24826;52.070;20.970;2023-03-31T04:47:55;61400.66;;;-147.04;100.00
39075;BME280;24826;52.070;20.970;2023-03-31T04:50:40;61406.63;;;-147.04;100.00
39075;BME280;24826;52.070;20.970;2023-03-31T04:53:24;61388.72;;;-147.04;100.00
39075;BME280;24826;52.070;20.970;2023-03-31T04:56:09;61396.66;;;-147.04;100.00
39075;BME280;24826;52.070;20.970;2023-03-31T04:58:53;61400.66;;;-147.04;100.00
39075;BME280;24826;52.070;20.970;2023-03-31T05:01:38;61390.72;;;-147.04;100.00
39075;BME280;24826;52.070;20.970;2023-03-31T05:04:22;61396.66;;;-147.04;100.00
39075;BME280;24826;52.070;20.970;2023-03-31T05:07:07;61408.59;;;-147.04;100.00
39075;BME280;24826;52.070;20.970;2023-03-31T05:09:51;61380.75;;;-147.04;100.00
39075;BME280;24826;52.070;20.970;2023-03-31T05:12:37;61372.81;;;-147.04;100.00
39075;BME280;24826;52.070;20.970;2023-03-31T05:15:21;61442.41;;;-147.04;100.00
39075;BME280;24826;52.070;20.970;2023-03-31T05:18:07;61380.75;;;-147.04;100.00
39075;BME280;24826;52.070;20.970;2023-03-31T05:20:51;61376.78;;;-147.04;100.00
39075;BME280;24826;52.070;20.970;2023-03-31T05:23:37;61416.56;;;-147.04;100.00
39075;BME280;24826;52.070;20.970;2023-03-31T05:26:21;61426.50;;;-147.04;100.00
39075;BME280;24826;52.070;20.970;2023-03-31T05:29:09;61396.66;;;-147.04;100.00
39075;BME280;24826;52.070;20.970;2023-03-31T05:31:53;61380.75;;;-147.04;100.00
39075;BME280;24826;52.070;20.970;2023-03-31T05:34:37;61450.34;;;-147.04;100.00
39075;BME280;24826;52.070;20.970;2023-03-31T05:37:25;61402.63;;;-147.04;100.00
39075;BME280;24826;52.070;20.970;2023-03-31T05:40:11;61400.66;;;-147.04;100.00
39075;BME280;24826;52.070;20.970;2023-03-31T05:42:55;61452.34;;;-147.04;100.00
39075;BME280;24826;52.070;20.970;2023-03-31T05:45:40;61472.22;;;-147.04;100.00
39075;BME280;24826;52.070;20.970;2023-03-31T05:48:24;61494.09;;;-147.04;100.00
39075;BME280;24826;52.070;20.970;2023-03-31T05:51:09;61496.09;;;-147.04;100.00
39075;BME280;24826;52.070;20.970;2023-03-31T05:53:53;61549.78;;;-147.04;100.00
39075;BME280;24826;52.070;20.970;2023-03-31T05:56:38;61500.06;;;-147.04;100.00
39075;BME280;24826;52.070;20.970;2023-03-31T05:59:22;61523.94;;;-147.04;100.00
39075;BME280;24826;52.070;20.970;2023-03-31T06:02:07;61519.94;;;-147.04;100.00
39075;BME280;24826;52.070;20.970;2023-03-31T06:04:51;61581.59;;;-147.04;100.00
39075;BME280;24826;52.070;20.970;2023-03-31T06:07:36;61517.97;;;-147.04;100.00
39075;BME280;24826;52.070;20.970;2023-03-31T06:10:20;61527.91;;;-147.04;100.00
39075;BME280;24826;52.070;20.970;2023-03-31T06:13:05;61555.75;;;-147.04;100.00
39075;BME280;24826;52.070;20.970;2023-03-31T06:15:56;61535.88;;;-147.04;100.00
39075;BME280;24826;52.070;20.970;2023-03-31T06:18:42;61543.81;;;-147.04;100.00
39075;BME280;24826;52.070;20.970;2023-03-31T06:21:26;61517.97;;;-147.04;100.00
39075;BME280;24826;52.070;20.970;2023-03-31T06:24:11;61512.00;;;-147.04;100.00
39075;BME280;24826;52.070;20.970;2023-03-31T06:26:55;61508.03;;;-147.04;100.00
39075;BME280;24826;52.070;20.970;2023-03-31T06:29:40;61555.75;;;-147.04;100.00
39075;BME280;24826;52.070;20.970;2023-03-31T06:32:24;61504.03;;;-147.04;100.00
39075;BME280;24826;52.070;20.970;2023-03-31T06:35:09;61543.81;;;-147.04;100.00
39075;BME280;24826;52.070;20.970;2023-03-31T06:37:54;61517.97;;;-147.04;100.00
39075;BME280;24826;52.070;20.970;2023-03-31T06:40:38;61512.00;;;-147.04;100.00
39075;BME280;24826;52.070;20.970;2023-03-31T06:43:22;61547.78;;;-147.04;100.00
39075;BME280;24826;52.070;20.970;2023-03-31T06:46:10;61531.88;;;-147.04;100.00
39075;BME280;24826;52.070;20.970;2023-03-31T06:48:54;61515.97;;;-147.04;100.00
39075;BME280;24826;52.070;20.970;2023-03-31T06:51:39;61569.66;;;-147.04;100.00
39075;BME280;24826;52.070;20.970;2023-03-31T06:54:23;61527.91;;;-147.04;100.00
39075;BME280;24826;52.070;20.970;2023-03-31T06:57:07;61541.81;;;-147.04;100.00
39075;BME280;24826;52.070;20.970;2023-03-31T06:59:51;61563.69;;;-147.04;100.00
39075;BME280;24826;52.070;20.970;2023-03-31T07:02:35;61537.84;;;-147.04;100.00
39075;BME280;24826;52.070;20.970;2023-03-31T07:05:20;61543.81;;;-147.04;100.00
39075;BME280;24826;52.070;20.970;2023-03-31T07:08:11;61563.69;;;-147.04;100.00
39075;BME280;24826;52.070;20.970;2023-03-31T07:10:57;61557.75;;;-147.04;100.00
39075;BME280;24826;52.070;20.970;2023-03-31T07:13:42;61591.53;;;-147.04;100.00
39075;BME280;24826;52.070;20.970;2023-03-31T07:16:26;61655.16;;;-147.04;100.00
39075;BME280;24826;52.070;20.970;2023-03-31T07:19:11;61681.03;;;-147.04;100.00
39075;BME280;24826;52.070;20.970;2023-03-31T07:21:55;61714.84;;;-147.04;100.00
39075;BME280;24826;52.070;20.970;2023-03-31T07:24:40;61690.97;;;-147.04;100.00
39075;BME280;24826;52.070;20.970;2023-03-31T07:27:24;61688.97;;;-147.04;100.00
39075;BME280;24826;52.070;20.970;2023-03-31T07:30:12;61726.75;;;-147.04;100.00
39075;BME280;24826;52.070;20.970;2023-03-31T07:32:56;61685.00;;;-147.04;100.00
39075;BME280;24826;52.070;20.970;2023-03-31T07:35:41;61677.03;;;-147.04;100.00
39075;BME280;24826;52.070;20.970;2023-03-31T07:38:25;61667.09;;;-147.04;100.00
39075;BME280;24826;52.070;20.970;2023-03-31T07:41:12;61603.47;;;-147.04;100.00
39075;BME280;24826;52.070;20.970;2023-03-31T07:44:02;61629.31;;;-147.04;100.00
39075;BME280;24826;52.070;20.970;2023-03-31T07:46:46;61611.44;;;-147.04;100.00
39075;BME280;24826;52.070;20.970;2023-03-31T07:49:32;61605.47;;;-147.04;100.00
39075;BME280;24826;52.070;20.970;2023-03-31T07:52:17;61591.53;;;-147.04;100.00
39075;BME280;24826;52.070;20.970;2023-03-31T07:55:03;61603.47;;;-147.04;100.00
39075;BME280;24826;52.070;20.970;2023-03-31T07:57:48;61609.44;;;-147.04;100.00
39075;BME280;24826;52.070;20.970;2023-03-31T08:00:33;61583.59;;;-147.04;100.00
39075;BME280;24826;52.070;20.970;2023-03-31T08:03:19;61541.81;;;-147.04;100.00
39075;BME280;24826;52.070;20.970;2023-03-31T08:06:03;61583.59;;;-147.04;100.00
39075;BME280;24826;52.070;20.970;2023-03-31T08:08:48;61631.31;;;-147.04;100.00
39075;BME280;24826;52.070;20.970;2023-03-31T08:11:33;61577.63;;;-147.04;100.00
39075;BME280;24826;52.070;20.970;2023-03-31T08:14:18;61551.78;;;-147.04;100.00
39075;BME280;24826;52.070;20.970;2023-03-31T08:17:02;61573.66;;;-147.04;100.00
39075;BME280;24826;52.070;20.970;2023-03-31T08:19:47;61549.78;;;-147.04;100.00
39075;BME280;24826;52.070;20.970;2023-03-31T08:22:32;61583.59;;;-147.04;100.00
39075;BME280;24826;52.070;20.970;2023-03-31T08:25:17;61559.72;;;-147.04;100.00
39075;BME280;24826;52.070;20.970;2023-03-31T08:28:01;61559.72;;;-147.04;100.00
39075;BME280;24826;52.070;20.970;2023-03-31T08:30:46;61575.63;;;-147.04;100.00
39075;BME280;24826;52.070;20.970;2023-03-31T08:33:30;61577.63;;;-147.04;100.00
39075;BME280;24826;52.070;20.970;2023-03-31T08:36:15;61597.50;;;-147.04;100.00
39075;BME280;24826;52.070;20.970;2023-03-31T08:38:59;61613.41;;;-147.04;100.00
39075;BME280;24826;52.070;20.970;2023-03-31T08:41:55;61603.47;;;-147.04;100.00
39075;BME280;24826;52.070;20.970;2023-03-31T08:44:46;61609.44;;;-147.04;100.00
39075;BME280;24826;52.070;20.970;2023-03-31T08:47:35;61629.31;;;-147.04;100.00
39075;BME280;24826;52.070;20.970;2023-03-31T08:50:24;61643.25;;;-147.04;100.00
39075;BME280;24826;52.070;20.970;2023-03-31T08:53:25;61657.16;;;-147.04;100.00
39075;BME280;24826;52.070;20.970;2023-03-31T08:56:16;61655.16;;;-147.04;100.00
39075;BME280;24826;52.070;20.970;2023-03-31T08:59:02;61623.34;;;-147.04;100.00
39075;BME280;24826;52.070;20.970;2023-03-31T09:02:00;61625.34;;;-147.04;100.00
39075;BME280;24826;52.070;20.970;2023-03-31T09:05:15;61645.22;;;-147.04;100.00
39075;BME280;24826;52.070;20.970;2023-03-31T09:11:28;61661.13;;;-147.04;100.00
39075;BME280;24826;52.070;20.970;2023-03-31T09:14:23;61683.00;;;-147.04;100.00
39075;BME280;24826;52.070;20.970;2023-03-31T09:17:26;61677.03;;;-147.04;100.00
39075;BME280;24826;52.070;20.970;2023-03-31T09:23:23;61700.91;;;-147.04;100.00
39075;BME280;24826;52.070;20.970;2023-03-31T09:26:24;61696.94;;;-147.04;100.00
39075;BME280;24826;52.070;20.970;2023-03-31T09:29:23;61722.78;;;-147.04;100.00
39075;BME280;24826;52.070;20.970;2023-03-31T09:32:27;61710.84;;;-147.04;100.00
39075;BME280;24826;52.070;20.970;2023-03-31T09:35:24;61726.75;;;-147.04;100.00
39075;BME280;24826;52.070;20.970;2023-03-31T09:38:11;61856.03;;;-147.04;100.00
39075;BME280;24826;52.070;20.970;2023-03-31T09:40:57;61704.88;;;-147.04;100.00
39075;BME280;24826;52.070;20.970;2023-03-31T09:43:42;61710.84;;;-147.04;100.00
39075;BME280;24826;52.070;20.970;2023-03-31T09:46:32;61673.06;;;-147.04;100.00
39075;BME280;24826;52.070;20.970;2023-03-31T09:49:20;61710.84;;;-147.04;100.00
39075;BME280;24826;52.070;20.970;2023-03-31T09:52:24;61710.84;;;-147.04;100.00
39075;BME280;24826;52.070;20.970;2023-03-31T09:58:10;61720.78;;;-147.04;100.00
39075;BME280;24826;52.070;20.970;2023-03-31T10:01:05;61722.78;;;-147.04;100.00
39075;BME280;24826;52.070;20.970;2023-03-31T10:03:54;61710.84;;;-147.04;100.00
39075;BME280;24826;52.070;20.970;2023-03-31T10:06:40;61720.78;;;-147.04;100.00
39075;BME280;24826;52.070;20.970;2023-03-31T10:09:27;61744.66;;;-147.04;100.00
39075;BME280;24826;52.070;20.970;2023-03-31T10:12:19;61750.63;;;-147.04;100.00
39075;BME280;24826;52.070;20.970;2023-03-31T10:15:18;61754.59;;;-147.04;100.00
39075;BME280;24826;52.070;20.970;2023-03-31T10:18:04;61756.59;;;-147.04;100.00
39075;BME280;24826;52.070;20.970;2023-03-31T10:20:51;61770.50;;;-147.04;100.00
39075;BME280;24826;52.070;20.970;2023-03-31T10:23:36;61766.53;;;-147.04;100.00
39075;BME280;24826;52.070;20.970;2023-03-31T10:26:24;61714.84;;;-147.04;99.21
39075;BME280;24826;52.070;20.970;2023-03-31T10:29:11;61742.66;;;-147.04;99.06
39075;BME280;24826;52.070;20.970;2023-03-31T10:32:04;61724.78;;;-147.04;98.86
39075;BME280;24826;52.070;20.970;2023-03-31T10:34:53;61696.94;;;-147.04;98.61
39075;BME280;24826;52.070;20.970;2023-03-31T10:37:38;61794.38;;;-147.04;97.86
39075;BME280;24826;52.070;20.970;2023-03-31T10:40:25;61716.81;;;-147.04;98.09
39075;BME280;24826;52.070;20.970;2023-03-31T10:43:16;61750.63;;;-147.04;98.07
39075;BME280;24826;52.070;20.970;2023-03-31T10:49:27;61760.56;;;-147.04;98.72
39075;BME280;24826;52.070;20.970;2023-03-31T10:52:22;61812.28;;;-147.04;97.20
39075;BME280;24826;52.070;20.970;2023-03-31T10:55:11;61768.53;;;-147.04;96.22
39075;BME280;24826;52.070;20.970;2023-03-31T10:58:02;61788.41;;;-147.04;95.97
39075;BME280;24826;52.070;20.970;2023-03-31T11:00:55;61824.19;;;-147.04;95.66
39075;BME280;24826;52.070;20.970;2023-03-31T11:18:59;61784.44;;;-147.04;92.37
39075;BME280;24826;52.070;20.970;2023-03-31T11:31:51;61748.63;;;-147.04;90.52
39075;BME280;24826;52.070;20.970;2023-03-31T11:34:47;61750.63;;;-147.04;91.17
39075;BME280;24826;52.070;20.970;2023-03-31T11:43:33;61762.56;;;-147.04;90.31
39075;BME280;24826;52.070;20.970;2023-03-31T11:46:26;61790.41;;;-147.04;89.35
39075;BME280;24826;52.070;20.970;2023-03-31T11:52:05;61762.56;;;-147.04;88.51
39075;BME280;24826;52.070;20.970;2023-03-31T11:54:54;61802.31;;;-147.04;87.24
39075;BME280;24826;52.070;20.970;2023-03-31T11:57:44;61838.13;;;-147.04;85.96
39075;BME280;24826;52.070;20.970;2023-03-31T12:00:43;61796.38;;;-147.04;84.83
39075;BME280;24826;52.070;20.970;2023-03-31T12:04:10;61792.38;;;-147.04;85.14
39075;BME280;24826;52.070;20.970;2023-03-31T12:07:02;61806.31;;;-147.04;85.83
39075;BME280;24826;52.070;20.970;2023-03-31T12:09:58;61828.19;;;-147.04;86.10
39075;BME280;24826;52.070;20.970;2023-03-31T12:13:01;61842.09;;;-147.04;85.14
39075;BME280;24826;52.070;20.970;2023-03-31T12:15:57;61814.25;;;-147.04;84.64
39075;BME280;24826;52.070;20.970;2023-03-31T12:19:01;61846.09;;;-147.04;84.87
39075;BME280;24826;52.070;20.970;2023-03-31T12:21:52;61840.13;;;-147.04;83.65
39075;BME280;24826;52.070;20.970;2023-03-31T12:24:39;61790.41;;;-147.04;84.08
39075;BME280;24826;52.070;20.970;2023-03-31T12:33:20;61784.44;;;-147.04;82.93
39075;BME280;24826;52.070;20.970;2023-03-31T12:36:54;61750.63;;;-147.04;82.47
39075;BME280;24826;52.070;20.970;2023-03-31T12:52:24;61798.34;;;-147.04;81.40
39075;BME280;24826;52.070;20.970;2023-03-31T12:55:32;61784.44;;;-147.04;80.85
39075;BME280;24826;52.070;20.970;2023-03-31T13:01:17;61756.59;;;-147.04;82.51
39075;BME280;24826;52.070;20.970;2023-03-31T13:04:28;61746.66;;;-147.04;81.95
39075;BME280;24826;52.070;20.970;2023-03-31T13:13:06;61730.75;;;-147.04;83.46
39075;BME280;24826;52.070;20.970;2023-03-31T13:15:57;61708.88;;;-147.04;83.77
39075;BME280;24826;52.070;20.970;2023-03-31T13:18:49;61690.97;;;-147.04;83.29
39075;BME280;24826;52.070;20.970;2023-03-31T13:22:01;61702.91;;;-147.04;84.87
39075;BME280;24826;52.070;20.970;2023-03-31T13:24:46;61734.72;;;-147.04;84.94
39075;BME280;24826;52.070;20.970;2023-03-31T13:27:34;61905.75;;;-147.04;84.42
39075;BME280;24826;52.070;20.970;2023-03-31T13:33:50;61732.72;;;-147.04;82.10
39075;BME280;24826;52.070;20.970;2023-03-31T13:36:51;61720.78;;;-147.04;81.16
39075;BME280;24826;52.070;20.970;2023-03-31T13:45:56;61750.63;;;-147.04;81.13
39075;BME280;24826;52.070;20.970;2023-03-31T13:49:02;61738.69;;;-147.04;81.15
39075;BME280;24826;52.070;20.970;2023-03-31T13:52:04;61750.63;;;-147.04;80.43
39075;BME280;24826;52.070;20.970;2023-03-31T13:55:11;61710.84;;;-147.04;80.89
39075;BME280;24826;52.070;20.970;2023-03-31T13:58:21;61734.72;;;-147.04;81.70
39075;BME280;24826;52.070;20.970;2023-03-31T14:04:42;61762.56;;;-147.04;83.49
39075;BME280;24826;52.070;20.970;2023-03-31T14:07:41;61712.84;;;-147.04;83.68
39075;BME280;24826;52.070;20.970;2023-03-31T14:10:30;61730.75;;;-147.04;83.23
39075;BME280;24826;52.070;20.970;2023-03-31T14:13:17;61778.47;;;-147.04;83.27
39075;BME280;24826;52.070;20.970;2023-03-31T14:16:02;61643.25;;;-147.04;83.91
39075;BME280;24826;52.070;20.970;2023-03-31T14:18:49;61671.09;;;-147.04;83.09
39075;BME280;24826;52.070;20.970;2023-03-31T14:21:43;61639.25;;;-147.04;82.78
39075;BME280;24826;52.070;20.970;2023-03-31T14:24:43;61690.97;;;-147.04;82.94
39075;BME280;24826;52.070;20.970;2023-03-31T14:31:09;61645.22;;;-147.04;85.52
39075;BME280;24826;52.070;20.970;2023-03-31T14:39:43;61627.34;;;-147.04;86.17
39075;BME280;24826;52.070;20.970;2023-03-31T14:42:36;61601.47;;;-147.04;86.14
39075;BME280;24826;52.070;20.970;2023-03-31T14:45:24;61595.53;;;-147.04;86.19
39075;BME280;24826;52.070;20.970;2023-03-31T14:48:12;61619.38;;;-147.04;85.96
39075;BME280;24826;52.070;20.970;2023-03-31T14:51:00;61667.09;;;-147.04;85.30
39075;BME280;24826;52.070;20.970;2023-03-31T14:53:45;61704.88;;;-147.04;85.71
39075;BME280;24826;52.070;20.970;2023-03-31T14:56:33;61679.03;;;-147.04;86.20
39075;BME280;24826;52.070;20.970;2023-03-31T14:59:27;61617.38;;;-147.04;86.93
39075;BME280;24826;52.070;20.970;2023-03-31T15:02:16;61609.44;;;-147.04;86.96
39075;BME280;24826;52.070;20.970;2023-03-31T15:05:05;61665.13;;;-147.04;86.08
39075;BME280;24826;52.070;20.970;2023-03-31T15:07:50;61579.59;;;-147.04;85.58
39075;BME280;24826;52.070;20.970;2023-03-31T15:10:48;61605.47;;;-147.04;85.52
39075;BME280;24826;52.070;20.970;2023-03-31T15:13:40;61579.59;;;-147.04;86.02
39075;BME280;24826;52.070;20.970;2023-03-31T15:16:40;61583.59;;;-147.04;86.42
39075;BME280;24826;52.070;20.970;2023-03-31T15:19:28;61587.56;;;-147.04;88.85
39075;BME280;24826;52.070;20.970;2023-03-31T15:22:15;61537.84;;;-147.04;92.52
39075;BME280;24826;52.070;20.970;2023-03-31T15:25:02;61559.72;;;-147.04;98.35
39075;BME280;24826;52.070;20.970;2023-03-31T15:27:52;61472.22;;;-147.04;100.00
39075;BME280;24826;52.070;20.970;2023-03-31T15:30:38;61504.03;;;-147.04;100.00
39075;BME280;24826;52.070;20.970;2023-03-31T15:33:30;61484.16;;;-147.04;100.00
39075;BME280;24826;52.070;20.970;2023-03-31T15:36:16;61663.13;;;-147.04;100.00
39075;BME280;24826;52.070;20.970;2023-03-31T15:39:00;61474.22;;;-147.04;100.00
39075;BME280;24826;52.070;20.970;2023-03-31T15:41:46;61496.09;;;-147.04;100.00
39075;BME280;24826;52.070;20.970;2023-03-31T15:44:45;61515.97;;;-147.04;100.00
39075;BME280;24826;52.070;20.970;2023-03-31T15:47:32;61519.94;;;-147.04;100.00
39075;BME280;24826;52.070;20.970;2023-03-31T15:50:21;61480.19;;;-147.04;100.00
39075;BME280;24826;52.070;20.970;2023-03-31T15:53:24;61521.94;;;-147.04;100.00
39075;BME280;24826;52.070;20.970;2023-03-31T15:56:30;61512.00;;;-147.04;100.00
39075;BME280;24826;52.070;20.970;2023-03-31T15:59:22;61535.88;;;-147.04;100.00
39075;BME280;24826;52.070;20.970;2023-03-31T16:02:11;61514.00;;;-147.04;100.00
39075;BME280;24826;52.070;20.970;2023-03-31T16:04:58;61665.13;;;-147.04;100.00
39075;BME280;24826;52.070;20.970;2023-03-31T16:07:42;61504.03;;;-147.04;100.00
39075;BME280;24826;52.070;20.970;2023-03-31T16:10:28;61517.97;;;-147.04;100.00
39075;BME280;24826;52.070;20.970;2023-03-31T16:13:18;61504.03;;;-147.04;100.00
39075;BME280;24826;52.070;20.970;2023-03-31T16:16:11;61468.25;;;-147.04;100.00
39075;BME280;24826;52.070;20.970;2023-03-31T16:19:05;61500.06;;;-147.04;100.00
39075;BME280;24826;52.070;20.970;2023-03-31T16:21:55;61517.97;;;-147.04;100.00
39075;BME280;24826;52.070;20.970;2023-03-31T16:24:42;61456.31;;;-147.04;100.00
39075;BME280;24826;52.070;20.970;2023-03-31T16:27:27;61508.03;;;-147.04;100.00